createdAt,value
2018-11-26T00:00:21.765Z,99901.11
2018-11-26T00:02:50.471Z,99901.61
2018-11-26T00:05:18.717Z,99892.23
2018-11-26T00:07:47.131Z,99898.51
2018-11-26T00:10:32.686Z,99900.69
2018-11-26T00:13:01.082Z,99899.68
2018-11-26T00:15:29.328Z,99899.56
2018-11-26T00:17:57.530Z,99898.43
2018-11-26T00:20:25.679Z,99881.94
2018-11-26T00:22:53.996Z,99890.39
2018-11-26T00:25:22.216Z,99889.14
2018-11-26T00:27:50.533Z,99889.25
2018-11-26T00:30:18.700Z,99885.65
2018-11-26T00:32:47.004Z,99886.25
2018-11-26T00:35:15.250Z,99892.30
2018-11-26T00:37:43.574Z,99892.14
2018-11-26T00:40:11.977Z,99892.86
2018-11-26T00:42:40.736Z,99897.06
2018-11-26T00:45:11.273Z,99895.03
2018-11-26T00:47:39.645Z,99896.16
2018-11-26T00:50:09.458Z,99899.34
2018-11-26T00:52:38.984Z,99892.44
2018-11-26T00:55:09.253Z,99896.16
2018-11-26T00:57:37.630Z,99891.10
2018-11-26T01:00:10.529Z,99892.77
2018-11-26T01:02:38.933Z,99887.63
2018-11-26T01:05:07.591Z,99892.56
2018-11-26T01:07:35.898Z,99895.12
2018-11-26T01:10:04.153Z,99894.70
2018-11-26T01:12:32.459Z,99886.67
2018-11-26T01:15:00.804Z,99885.45
2018-11-26T01:17:29.135Z,99891.02
2018-11-26T01:19:57.306Z,99887.30
2018-11-26T01:22:25.487Z,99878.20
2018-11-26T01:24:53.803Z,99880.25
2018-11-26T01:27:22.035Z,99876.03
2018-11-26T01:29:50.359Z,99879.67
2018-11-26T01:32:18.554Z,99880.38
2018-11-26T01:34:46.940Z,99877.70
2018-11-26T01:37:15.149Z,99874.81
2018-11-26T01:39:44.362Z,99875.15
2018-11-26T01:42:12.573Z,99880.67
2018-11-26T01:44:40.917Z,99874.39
2018-11-26T01:47:09.110Z,99876.28
2018-11-26T01:49:37.254Z,99872.02
2018-11-26T01:52:05.689Z,99872.13
2018-11-26T01:54:33.867Z,99866.15
2018-11-26T01:57:02.022Z,99870.38
2018-11-26T01:59:30.209Z,99867.06
2018-11-26T02:01:58.564Z,99868.74
2018-11-26T02:04:27.256Z,99867.08
2018-11-26T02:06:56.042Z,99862.84
2018-11-26T02:09:24.461Z,99861.13
2018-11-26T02:11:52.606Z,99866.78
2018-11-26T02:14:20.953Z,99860.50
2018-11-26T02:16:49.144Z,99868.95
2018-11-26T02:19:18.086Z,99869.16
2018-11-26T02:21:46.582Z,99873.74
2018-11-26T02:24:14.776Z,99870.56
2018-11-26T02:26:43.010Z,99877.76
2018-11-26T02:29:11.342Z,99873.32
2018-11-26T02:31:39.560Z,99868.91
2018-11-26T02:34:07.800Z,99873.02
2018-11-26T02:36:36.098Z,99877.38
2018-11-26T02:39:06.058Z,99868.36
2018-11-26T02:41:34.246Z,99870.83
2018-11-26T02:44:02.422Z,99867.05
2018-11-26T02:46:30.713Z,99872.77
2018-11-26T02:48:58.892Z,99869.82
2018-11-26T02:51:27.224Z,99876.20
2018-11-26T02:53:55.442Z,99879.88
2018-11-26T02:56:23.831Z,99874.94
2018-11-26T02:58:52.057Z,99872.88
2018-11-26T03:01:20.441Z,99867.41
2018-11-26T03:03:48.594Z,99865.27
2018-11-26T03:06:16.783Z,99865.05
2018-11-26T03:08:44.919Z,99864.02
2018-11-26T03:11:13.174Z,99863.92
2018-11-26T03:13:41.329Z,99869.77
2018-11-26T03:16:09.768Z,99862.68
2018-11-26T03:18:37.986Z,99858.02
2018-11-26T03:21:06.339Z,99855.14
2018-11-26T03:23:35.196Z,99865.30
2018-11-26T03:26:03.555Z,99861.50
2018-11-26T03:28:31.765Z,99862.65
2018-11-26T03:30:59.898Z,99855.98
2018-11-26T03:33:28.099Z,99874.31
2018-11-26T03:35:56.435Z,99874.04
2018-11-26T03:38:57.414Z,99872.48
2018-11-26T03:41:25.960Z,99887.84
2018-11-26T03:43:54.131Z,99885.69
2018-11-26T03:46:22.525Z,99883.20
2018-11-26T03:48:50.715Z,99883.27
2018-11-26T03:51:18.913Z,99876.56
2018-11-26T03:53:47.069Z,99885.06
2018-11-26T03:56:15.244Z,99886.00
2018-11-26T03:58:43.616Z,99884.45
2018-11-26T04:01:11.810Z,99887.56
2018-11-26T04:03:39.985Z,99888.30
2018-11-26T04:06:08.332Z,99895.77
2018-11-26T04:08:36.467Z,99896.85
2018-11-26T04:11:05.558Z,99898.06
2018-11-26T04:13:33.729Z,99908.41
2018-11-26T04:16:02.082Z,99897.53
2018-11-26T04:18:30.238Z,99902.17
2018-11-26T04:20:58.618Z,99899.30
2018-11-26T04:23:26.763Z,99899.86
2018-11-26T04:25:55.086Z,99899.86
2018-11-26T04:28:23.238Z,99898.41
2018-11-26T04:30:51.665Z,99893.06
2018-11-26T04:33:20.652Z,99895.84
2018-11-26T04:35:49.112Z,99891.38
2018-11-26T04:38:17.419Z,99900.11
2018-11-26T04:40:45.748Z,99892.31
2018-11-26T04:43:13.875Z,99895.98
2018-11-26T04:45:42.221Z,99890.04
2018-11-26T04:48:10.380Z,99891.05
2018-11-26T04:50:38.735Z,99896.87
2018-11-26T04:53:07.071Z,99903.55
2018-11-26T04:55:35.232Z,99907.06
2018-11-26T04:58:03.459Z,99901.41
2018-11-26T05:00:31.643Z,99905.87
2018-11-26T05:03:01.047Z,99909.78
2018-11-26T05:05:29.397Z,99913.19
2018-11-26T05:07:57.591Z,99916.80
2018-11-26T05:10:25.992Z,99920.67
2018-11-26T05:12:54.343Z,99923.27
2018-11-26T05:15:22.560Z,99920.36
2018-11-26T05:17:50.734Z,99919.33
2018-11-26T05:20:18.961Z,99909.34
2018-11-26T05:22:47.127Z,99910.78
2018-11-26T05:25:15.351Z,99907.89
2018-11-26T05:27:44.302Z,99907.94
2018-11-26T05:30:13.319Z,99919.02
2018-11-26T05:32:41.728Z,99910.34
2018-11-26T05:35:11.389Z,99911.17
2018-11-26T05:37:39.589Z,99913.44
2018-11-26T05:40:15.549Z,99912.43
2018-11-26T05:42:44.059Z,99914.70
2018-11-26T05:45:15.985Z,99907.39
2018-11-26T05:47:44.141Z,99913.91
2018-11-26T05:50:13.617Z,99906.89
2018-11-26T05:52:41.747Z,99904.03
2018-11-26T05:55:14.573Z,99906.64
2018-11-26T05:57:43.259Z,99911.59
2018-11-26T06:00:26.595Z,99912.48
2018-11-26T06:02:55.909Z,99906.27
2018-11-26T06:05:24.125Z,99910.22
2018-11-26T06:07:52.283Z,99913.69
2018-11-26T06:10:20.476Z,99918.14
2018-11-26T06:12:48.656Z,99912.95
2018-11-26T06:15:16.814Z,99923.33
2018-11-26T06:17:45.147Z,99925.03
2018-11-26T06:20:13.678Z,99924.63
2018-11-26T06:22:43.803Z,99923.58
2018-11-26T06:25:14.946Z,99924.02
2018-11-26T06:27:43.728Z,99927.19
2018-11-26T06:30:14.661Z,99932.02
2018-11-26T06:32:43.362Z,99925.73
2018-11-26T06:35:20.268Z,99929.27
2018-11-26T06:37:48.834Z,99932.84
2018-11-26T06:40:17.145Z,99935.52
2018-11-26T06:42:46.006Z,99934.67
2018-11-26T06:45:20.973Z,99928.84
2018-11-26T06:47:49.408Z,99939.32
2018-11-26T06:50:19.046Z,99940.30
2018-11-26T06:52:47.330Z,99941.91
2018-11-26T06:55:17.333Z,99946.26
2018-11-26T06:57:45.511Z,99942.05
2018-11-26T07:00:16.247Z,99946.00
2018-11-26T07:02:44.582Z,99946.83
2018-11-26T07:05:14.695Z,99950.55
2018-11-26T07:07:42.977Z,99949.84
2018-11-26T07:10:12.296Z,99949.38
2018-11-26T07:12:40.610Z,99950.25
2018-11-26T07:15:13.683Z,99948.20
2018-11-26T07:17:42.047Z,99944.59
2018-11-26T07:20:12.835Z,99949.41
2018-11-26T07:22:41.324Z,99944.36
2018-11-26T07:25:12.015Z,99948.67
2018-11-26T07:27:41.101Z,99959.77
2018-11-26T07:30:27.650Z,99960.14
2018-11-26T07:32:55.871Z,99961.40
2018-11-26T07:35:24.254Z,99967.98
2018-11-26T07:37:52.471Z,99960.67
2018-11-26T07:40:22.149Z,99964.64
2018-11-26T07:43:03.781Z,99965.14
2018-11-26T07:45:31.947Z,99967.02
2018-11-26T07:48:00.309Z,99968.78
2018-11-26T07:50:28.643Z,99976.34
2018-11-26T07:52:57.009Z,99976.89
2018-11-26T07:55:25.363Z,99976.23
2018-11-26T07:57:53.549Z,99976.80
2018-11-26T08:00:22.199Z,99975.20
2018-11-26T08:02:50.721Z,99969.69
2018-11-26T08:05:20.567Z,99979.44
2018-11-26T08:07:48.767Z,99982.03
2018-11-26T08:10:18.552Z,99976.19
2018-11-26T08:12:48.107Z,99981.47
2018-11-26T08:15:22.664Z,99984.14
2018-11-26T08:17:50.823Z,99988.48
2018-11-26T08:20:19.196Z,99993.23
2018-11-26T08:22:47.403Z,99992.27
2018-11-26T08:25:17.572Z,99996.59
2018-11-26T08:27:46.826Z,99995.80
2018-11-26T08:30:19.546Z,99993.31
2018-11-26T08:32:50.364Z,100000.67
2018-11-26T08:35:18.553Z,99999.27
2018-11-26T08:37:52.460Z,100000.84
2018-11-26T08:40:25.604Z,100005.98
2018-11-26T08:43:58.545Z,100001.17
2018-11-26T08:46:36.212Z,100002.25
2018-11-26T08:49:11.258Z,100007.18
2018-11-26T08:51:39.786Z,100011.97
2018-11-26T08:54:08.024Z,100015.23
2018-11-26T08:56:36.190Z,100015.97
2018-11-26T08:59:04.636Z,100014.45
2018-11-26T09:01:33.511Z,100011.97
2018-11-26T09:04:08.678Z,100012.70
2018-11-26T09:06:37.149Z,100020.91
2018-11-26T09:09:09.228Z,100019.55
2018-11-26T09:11:37.481Z,100017.08
2018-11-26T09:14:06.429Z,100013.41
2018-11-26T09:16:35.161Z,100017.16
2018-11-26T09:19:03.367Z,100014.22
2018-11-26T09:21:31.569Z,100015.51
2018-11-26T09:23:59.756Z,100015.70
2018-11-26T09:26:27.977Z,100015.84
2018-11-26T09:28:56.195Z,100018.36
2018-11-26T09:31:24.323Z,100011.83
2018-11-26T09:33:52.451Z,100011.19
2018-11-26T09:36:20.661Z,100006.91
2018-11-26T09:38:48.939Z,100007.69
2018-11-26T09:41:17.202Z,100011.25
2018-11-26T09:43:45.369Z,100016.66
2018-11-26T09:46:13.553Z,100014.38
2018-11-26T09:48:41.697Z,100014.09
2018-11-26T09:51:14.096Z,100012.50
2018-11-26T09:53:38.097Z,100017.41
2018-11-26T09:56:06.342Z,100012.20
2018-11-26T09:58:34.529Z,100014.18
2018-11-26T10:01:02.759Z,100014.73
2018-11-26T10:03:30.974Z,100009.44
2018-11-26T10:05:59.201Z,100004.48
2018-11-26T10:08:27.331Z,100007.41
2018-11-26T10:10:55.531Z,100005.45
2018-11-26T10:13:23.774Z,100002.65
2018-11-26T10:15:51.955Z,100004.02
2018-11-26T10:18:20.111Z,100005.69
2018-11-26T10:20:48.291Z,99999.16
2018-11-26T10:23:16.483Z,99995.94
2018-11-26T10:25:44.676Z,99999.29
2018-11-26T10:28:12.861Z,99995.28
2018-11-26T10:30:41.023Z,100001.27
2018-11-26T10:33:14.691Z,99993.11
2018-11-26T10:35:37.428Z,99996.66
2018-11-26T10:38:06.888Z,99993.25
2018-11-26T10:40:35.044Z,99988.88
2018-11-26T10:43:03.310Z,99993.09
2018-11-26T10:45:31.462Z,99988.37
2018-11-26T10:47:59.660Z,99990.18
2018-11-26T10:50:27.809Z,99989.71
2018-11-26T10:52:58.368Z,99991.15
2018-11-26T10:55:33.083Z,99980.84
2018-11-26T10:58:01.465Z,99986.83
2018-11-26T11:00:35.647Z,99988.77
2018-11-26T11:03:04.043Z,99987.09
2018-11-26T11:05:32.341Z,99997.13
2018-11-26T11:08:07.152Z,99992.38
2018-11-26T11:10:35.324Z,99995.78
2018-11-26T11:13:03.820Z,99998.41
2018-11-26T11:15:32.033Z,100005.00
2018-11-26T11:18:00.288Z,100004.45
2018-11-26T11:20:29.081Z,100001.55
2018-11-26T11:22:57.282Z,100014.44
2018-11-26T11:25:25.559Z,100011.06
2018-11-26T11:27:53.750Z,100010.38
2018-11-26T11:30:23.962Z,100007.09
2018-11-26T11:32:53.206Z,100016.05
2018-11-26T11:35:21.443Z,100015.31
2018-11-26T11:37:50.525Z,100008.58
2018-11-26T11:40:21.196Z,100004.19
2018-11-26T11:42:49.908Z,100014.68
2018-11-26T11:45:18.428Z,100021.41
2018-11-26T11:47:46.653Z,100013.58
2018-11-26T11:50:16.698Z,100008.49
2018-11-26T11:52:45.140Z,100005.41
2018-11-26T11:55:15.714Z,100011.75
2018-11-26T11:57:44.062Z,100014.73
2018-11-26T12:00:20.769Z,100017.66
2018-11-26T12:02:48.940Z,100018.80
2018-11-26T12:05:17.200Z,100028.34
2018-11-26T12:07:45.394Z,100023.84
2018-11-26T12:10:13.638Z,100028.29
2018-11-26T12:12:41.839Z,100022.50
2018-11-26T12:15:12.036Z,100022.94
2018-11-26T12:17:40.816Z,100022.39
2018-11-26T12:20:10.912Z,100020.77
2018-11-26T12:22:40.196Z,100024.22
2018-11-26T12:25:11.293Z,100017.94
2018-11-26T12:27:39.513Z,100015.70
2018-11-26T12:30:16.012Z,100013.97
2018-11-26T12:32:44.150Z,100011.83
2018-11-26T12:35:12.332Z,100015.51
2018-11-26T12:37:40.536Z,100019.72
2018-11-26T12:40:13.623Z,100016.57
2018-11-26T12:42:41.832Z,100016.41
2018-11-26T12:45:33.801Z,100019.06
2018-11-26T12:48:02.174Z,100026.89
2018-11-26T12:50:30.463Z,100021.30
2018-11-26T12:52:58.617Z,100017.29
2018-11-26T12:55:26.801Z,100017.48
2018-11-26T12:57:55.920Z,100018.63
2018-11-26T13:00:26.670Z,100019.08
2018-11-26T13:03:02.111Z,100018.38
2018-11-26T13:05:30.322Z,100023.83
2018-11-26T13:07:58.490Z,100030.82
2018-11-26T13:10:26.671Z,100022.94
2018-11-26T13:12:54.955Z,100021.05
2018-11-26T13:15:25.081Z,100024.78
2018-11-26T13:17:53.277Z,100031.91
2018-11-26T13:20:25.671Z,100023.20
2018-11-26T13:22:54.370Z,100024.23
2018-11-26T13:25:25.373Z,100018.44
2018-11-26T13:27:55.225Z,100023.84
2018-11-26T13:30:27.209Z,100024.03
2018-11-26T13:32:59.982Z,100021.35
2018-11-26T13:35:28.220Z,100018.97
2018-11-26T13:37:56.465Z,100015.53
2018-11-26T13:40:24.666Z,100022.17
2018-11-26T13:42:52.882Z,100022.28
2018-11-26T13:45:29.592Z,100016.63
2018-11-26T13:47:57.841Z,100024.31
2018-11-26T13:50:29.896Z,100026.03
2018-11-26T13:52:58.203Z,100028.35
2018-11-26T13:55:26.438Z,100028.51
2018-11-26T13:57:54.613Z,100028.11
2018-11-26T14:00:22.800Z,100022.42
2018-11-26T14:02:51.007Z,100032.63
2018-11-26T14:05:19.551Z,100024.41
2018-11-26T14:07:48.043Z,100032.38
2018-11-26T14:10:21.526Z,100029.95
2018-11-26T14:13:23.272Z,100040.45
2018-11-26T14:15:51.611Z,100042.83
2018-11-26T14:18:19.800Z,100036.55
2018-11-26T14:20:48.023Z,100033.83
2018-11-26T14:23:16.197Z,100032.78
2018-11-26T14:25:44.441Z,100033.10
2018-11-26T14:28:12.672Z,100035.89
2018-11-26T14:30:40.950Z,100039.31
2018-11-26T14:33:09.462Z,100039.52
2018-11-26T14:35:37.621Z,100034.16
2018-11-26T14:38:08.495Z,100037.53
2018-11-26T14:40:42.962Z,100040.45
2018-11-26T14:43:11.181Z,100039.48
2018-11-26T14:45:39.442Z,100044.16
2018-11-26T14:48:07.653Z,100040.27
2018-11-26T14:50:35.880Z,100047.88
2018-11-26T14:53:05.148Z,100048.02
2018-11-26T14:55:35.729Z,100049.42
2018-11-26T14:58:04.077Z,100053.17
2018-11-26T15:00:32.314Z,100061.29
2018-11-26T15:03:00.524Z,100060.16
2018-11-26T15:05:28.716Z,100064.36
2018-11-26T15:07:56.887Z,100067.98
2018-11-26T15:10:25.551Z,100064.85
2018-11-26T15:12:53.772Z,100059.41
2018-11-26T15:15:25.003Z,100062.98
2018-11-26T15:17:53.200Z,100070.05
2018-11-26T15:20:25.458Z,100068.43
2018-11-26T15:22:55.935Z,100066.59
2018-11-26T15:25:26.731Z,100077.59
2018-11-26T15:27:57.965Z,100072.78
2018-11-26T15:30:26.213Z,100073.78
2018-11-26T15:32:56.084Z,100068.52
2018-11-26T15:35:24.509Z,100081.38
2018-11-26T15:37:52.814Z,100080.69
2018-11-26T15:40:21.744Z,100073.97
2018-11-26T15:42:49.982Z,100084.20
2018-11-26T15:45:22.873Z,100087.72
2018-11-26T15:47:52.262Z,100083.97
2018-11-26T15:50:20.865Z,100087.02
2018-11-26T15:52:48.759Z,100082.24
2018-11-26T15:55:18.501Z,100091.50
2018-11-26T15:57:46.839Z,100090.70
2018-11-26T16:00:16.561Z,100089.86
2018-11-26T16:02:44.962Z,100089.02
2018-11-26T16:05:19.024Z,100091.84
2018-11-26T16:07:48.117Z,100094.52
2018-11-26T16:10:16.355Z,100100.89
2018-11-26T16:12:46.345Z,100097.07
2018-11-26T16:15:18.456Z,100104.25
2018-11-26T16:17:46.705Z,100104.25
2018-11-26T16:20:17.947Z,100105.28
2018-11-26T16:22:46.186Z,100109.41
2018-11-26T16:25:16.468Z,100121.86
2018-11-26T16:27:44.857Z,100117.31
2018-11-26T16:30:14.698Z,100117.77
2018-11-26T16:32:44.933Z,100128.00
2018-11-26T16:35:18.914Z,100124.36
2018-11-26T16:37:47.198Z,100127.86
2018-11-26T16:40:16.537Z,100125.56
2018-11-26T16:42:44.808Z,100128.11
2018-11-26T16:45:17.508Z,100130.14
2018-11-26T16:47:48.367Z,100128.61
2018-11-26T16:50:17.967Z,100123.58
2018-11-26T16:52:46.218Z,100134.70
2018-11-26T16:55:15.587Z,100133.44
2018-11-26T16:57:43.856Z,100135.77
2018-11-26T17:00:19.658Z,100148.74
2018-11-26T17:02:49.500Z,100151.72
2018-11-26T17:05:26.851Z,100153.55
2018-11-26T17:07:55.062Z,100154.16
2018-11-26T17:10:23.240Z,100153.75
2018-11-26T17:12:51.700Z,100160.53
2018-11-26T17:15:19.880Z,100160.16
2018-11-26T17:17:48.074Z,100161.45
2018-11-26T17:20:17.024Z,100162.29
2018-11-26T17:22:45.284Z,100166.64
2018-11-26T17:25:14.922Z,100164.19
2018-11-26T17:27:43.884Z,100165.56
2018-11-26T17:30:18.724Z,100170.80
2018-11-26T17:32:49.720Z,100174.41
2018-11-26T17:35:18.038Z,100175.78
2018-11-26T17:37:46.250Z,100164.84
2018-11-26T17:40:23.793Z,100180.23
2018-11-26T17:42:52.597Z,100184.98
2018-11-26T17:45:21.605Z,100179.73
2018-11-26T17:47:51.593Z,100184.82
2018-11-26T17:50:28.919Z,100190.34
2018-11-26T17:52:57.277Z,100188.91
2018-11-26T17:55:25.561Z,100193.56
2018-11-26T17:57:53.999Z,100197.92
2018-11-26T18:00:34.242Z,100196.52
2018-11-26T18:03:02.475Z,100202.63
2018-11-26T18:05:31.344Z,100194.07
2018-11-26T18:08:08.867Z,100198.01
2018-11-26T18:10:37.229Z,100203.72
2018-11-26T18:13:05.923Z,100211.45
2018-11-26T18:15:34.222Z,100212.48
2018-11-26T18:18:02.419Z,100214.13
2018-11-26T18:20:30.780Z,100216.05
2018-11-26T18:22:58.977Z,100223.39
2018-11-26T18:25:27.187Z,100212.12
2018-11-26T18:28:02.197Z,100216.72
2018-11-26T18:30:35.496Z,100221.84
2018-11-26T18:33:04.063Z,100224.33
2018-11-26T18:35:32.327Z,100232.12
2018-11-26T18:38:00.600Z,100232.64
2018-11-26T18:40:29.458Z,100235.29
2018-11-26T18:42:57.838Z,100239.08
2018-11-26T18:45:26.043Z,100243.87
2018-11-26T18:47:54.300Z,100242.73
2018-11-26T18:50:22.543Z,100234.27
2018-11-26T18:52:51.292Z,100238.95
2018-11-26T18:55:19.997Z,100238.63
2018-11-26T18:57:48.218Z,100241.09
2018-11-26T19:00:24.495Z,100244.63
2018-11-26T19:02:53.686Z,100240.23
2018-11-26T19:05:21.994Z,100246.95
2018-11-26T19:07:51.165Z,100237.50
2018-11-26T19:10:22.004Z,100241.67
2018-11-26T19:13:25.980Z,100248.34
2018-11-26T19:16:05.861Z,100256.45
2018-11-26T19:18:34.106Z,100255.89
2018-11-26T19:21:02.379Z,100255.83
2018-11-26T19:23:30.631Z,100258.41
2018-11-26T19:25:58.840Z,100257.30
2018-11-26T19:28:27.072Z,100257.90
2018-11-26T19:30:55.352Z,100262.92
2018-11-26T19:33:23.562Z,100262.56
2018-11-26T19:35:51.802Z,100268.05
2018-11-26T19:38:20.046Z,100264.45
2018-11-26T19:40:48.267Z,100265.48
2018-11-26T19:43:16.529Z,100267.71
2018-11-26T19:45:44.816Z,100269.75
2018-11-26T19:48:13.019Z,100265.70
2018-11-26T19:50:41.217Z,100268.57
2018-11-26T19:53:11.234Z,100269.57
2018-11-26T19:55:41.187Z,100271.60
2018-11-26T19:58:09.988Z,100279.53
2018-11-26T20:00:38.939Z,100278.36
2018-11-26T20:03:22.411Z,100278.00
2018-11-26T20:06:05.190Z,100287.05
2018-11-26T20:08:33.456Z,100291.95
2018-11-26T20:11:01.708Z,100293.00
2018-11-26T20:13:30.012Z,100294.80
2018-11-26T20:15:58.496Z,100295.78
2018-11-26T20:18:28.587Z,100296.44
2018-11-26T20:20:55.024Z,100298.44
2018-11-26T20:23:23.288Z,100297.17
2018-11-26T20:25:52.242Z,100299.47
2018-11-26T20:28:19.852Z,100302.88
2018-11-26T20:30:48.708Z,100305.36
2018-11-26T20:33:17.157Z,100307.38
2018-11-26T20:35:46.571Z,100316.77
2018-11-26T20:38:15.850Z,100312.54
2018-11-26T20:40:44.101Z,100320.30
2018-11-26T20:43:13.619Z,100315.56
2018-11-26T20:45:44.203Z,100312.33
2018-11-26T20:48:12.471Z,100321.27
2018-11-26T20:50:45.531Z,100320.11
2018-11-26T20:53:13.771Z,100323.06
2018-11-26T20:55:42.615Z,100325.61
2018-11-26T20:58:10.839Z,100334.91
2018-11-26T21:00:40.177Z,100327.85
2018-11-26T21:03:09.715Z,100330.40
2018-11-26T21:05:38.771Z,100330.52
2018-11-26T21:08:07.154Z,100335.18
2018-11-26T21:10:35.889Z,100332.72
2018-11-26T21:13:04.272Z,100337.08
2018-11-26T21:15:32.556Z,100331.91
2018-11-26T21:18:04.641Z,100335.62
2018-11-26T21:20:38.446Z,100331.31
2018-11-26T21:23:12.152Z,100335.92
2018-11-26T21:25:40.562Z,100334.83
2018-11-26T21:28:09.317Z,100337.17
2018-11-26T21:30:37.548Z,100336.83
2018-11-26T21:33:06.177Z,100336.53
2018-11-26T21:35:34.473Z,100340.77
2018-11-26T21:38:02.806Z,100341.75
2018-11-26T21:40:31.080Z,100342.64
2018-11-26T21:43:00.385Z,100341.97
2018-11-26T21:45:32.448Z,100346.77
2018-11-26T21:48:00.674Z,100346.41
2018-11-26T21:50:28.904Z,100352.58
2018-11-26T21:52:57.205Z,100350.09
2018-11-26T21:55:25.435Z,100350.28
2018-11-26T21:57:53.666Z,100349.98
2018-11-26T22:00:28.849Z,100356.46
2018-11-26T22:02:57.572Z,100367.67
2018-11-26T22:05:26.882Z,100362.03
2018-11-26T22:07:55.061Z,100364.55
2018-11-26T22:10:24.200Z,100366.02
2018-11-26T22:12:54.606Z,100371.39
2018-11-26T22:15:23.086Z,100372.41
2018-11-26T22:17:51.377Z,100372.23
2018-11-26T22:20:22.691Z,100369.53
2018-11-26T22:22:50.966Z,100372.68
2018-11-26T22:25:19.339Z,100382.02
2018-11-26T22:27:47.687Z,100388.86
2018-11-26T22:30:21.560Z,100388.14
2018-11-26T22:32:49.862Z,100395.12
2018-11-26T22:35:18.174Z,100395.97
2018-11-26T22:37:46.451Z,100398.67
2018-11-26T22:40:21.608Z,100399.52
2018-11-26T22:42:50.214Z,100400.84
2018-11-26T22:45:23.219Z,100403.55
2018-11-26T22:47:58.441Z,100398.84
2018-11-26T22:50:26.668Z,100410.31
2018-11-26T22:52:54.899Z,100405.69
2018-11-26T22:55:23.164Z,100404.04
2018-11-26T22:57:51.518Z,100408.70
2018-11-26T23:00:34.746Z,100409.23
2018-11-26T23:03:03.120Z,100407.58
2018-11-26T23:05:31.371Z,100408.56
2018-11-26T23:07:59.765Z,100412.35
2018-11-26T23:10:27.979Z,100421.88
2018-11-26T23:12:56.399Z,100419.85
2018-11-26T23:15:24.618Z,100418.20
2018-11-26T23:17:52.857Z,100422.20
2018-11-26T23:20:21.103Z,100425.33
2018-11-26T23:22:49.510Z,100423.01
2018-11-26T23:25:19.129Z,100426.69
2018-11-26T23:27:47.376Z,100421.19
2018-11-26T23:30:22.575Z,100422.87
2018-11-26T23:32:55.039Z,100424.03
2018-11-26T23:35:23.420Z,100426.72
2018-11-26T23:37:51.873Z,100422.52
2018-11-26T23:40:20.075Z,100420.52
2018-11-26T23:42:48.569Z,100418.88
2018-11-26T23:45:26.354Z,100425.85
2018-11-26T23:47:54.913Z,100427.85
2018-11-26T23:50:23.177Z,100431.36
2018-11-26T23:52:51.489Z,100427.01
2018-11-26T23:55:23.266Z,100432.20
2018-11-26T23:57:51.661Z,100436.20
